createdAt,value
2022-11-27T02:39:03.571Z,96445.21
2022-11-27T02:41:42.614Z,96444.12
2022-11-27T02:44:12.881Z,96441.94
2022-11-27T02:46:43.150Z,96443.84
2022-11-27T02:49:15.117Z,96446.03
2022-11-27T02:52:00.430Z,96442.75
2022-11-27T02:54:31.454Z,96444.61
2022-11-27T02:57:02.675Z,96445.16
2022-11-27T02:59:33.287Z,96446.76
2022-11-27T03:02:07.580Z,96453.55
2022-11-27T03:04:38.537Z,96452.44
2022-11-27T03:07:11.561Z,96452.16
2022-11-27T03:09:49.779Z,96451.34
2022-11-27T03:12:20.104Z,96446.41
2022-11-27T03:14:50.229Z,96448.31
2022-11-27T03:17:38.124Z,96450.48
2022-11-27T03:20:16.611Z,96445.32
2022-11-27T03:22:48.142Z,96448.84
2022-11-27T03:25:19.893Z,96448.55
2022-11-27T03:27:52.479Z,96435.22
2022-11-27T03:30:23.422Z,96430.58
2022-11-27T03:32:54.039Z,96417.23
2022-11-27T03:35:25.472Z,96414.80
2022-11-27T03:38:06.130Z,96418.34
2022-11-27T03:40:42.115Z,96427.05
2022-11-27T03:43:16.575Z,96429.22
2022-11-27T03:46:03.677Z,96431.94
2022-11-27T03:48:42.100Z,96424.33
2022-11-27T03:51:20.673Z,96431.94
2022-11-27T03:53:56.203Z,96438.75
2022-11-27T03:56:32.126Z,96455.08
2022-11-27T03:59:07.178Z,96464.61
2022-11-27T04:01:37.433Z,96467.89
2022-11-27T04:04:07.778Z,96473.88
2022-11-27T04:06:37.930Z,96467.60
2022-11-27T04:09:08.408Z,96466.52
2022-11-27T04:14:17.235Z,96454.25
2022-11-27T04:16:47.487Z,96458.05
2022-11-27T04:19:17.665Z,96455.31
2022-11-27T04:21:47.929Z,96454.77
2022-11-27T04:24:18.320Z,96460.75
2022-11-27T04:26:48.622Z,96471.37
2022-11-27T04:29:18.941Z,96475.98
2022-11-27T04:31:48.962Z,96481.96
2022-11-27T04:34:19.191Z,96470.80
2022-11-27T04:36:49.311Z,96476.51
2022-11-27T04:39:19.495Z,96472.42
2022-11-27T04:41:49.923Z,96472.19
2022-11-27T04:44:19.986Z,96480.61
2022-11-27T04:46:50.267Z,96486.87
2022-11-27T04:49:20.483Z,96490.95
2022-11-27T04:51:50.924Z,96486.34
2022-11-27T04:54:20.755Z,96487.70
2022-11-27T04:56:53.762Z,96490.69
2022-11-27T04:59:24.877Z,96491.50
2022-11-27T05:01:56.125Z,96490.94
2022-11-27T05:04:26.771Z,96486.60
2022-11-27T05:06:56.828Z,96477.33
2022-11-27T05:09:27.460Z,96474.60
2022-11-27T05:11:57.521Z,96483.33
2022-11-27T05:14:29.080Z,96475.70
2022-11-27T05:17:00.353Z,96477.33
2022-11-27T05:19:31.384Z,96477.33
2022-11-27T05:22:01.546Z,96473.23
2022-11-27T05:24:31.935Z,96477.88
2022-11-27T05:27:02.061Z,96486.05
2022-11-27T05:29:32.265Z,96483.88
2022-11-27T05:32:07.968Z,96494.77
2022-11-27T05:34:38.507Z,96493.67
2022-11-27T05:37:12.883Z,96495.03
2022-11-27T05:39:42.515Z,96499.12
2022-11-27T05:42:13.015Z,96496.40
2022-11-27T05:44:46.027Z,96491.50
2022-11-27T05:47:17.763Z,96484.70
2022-11-27T05:49:48.190Z,96496.39
2022-11-27T05:52:19.987Z,96499.39
2022-11-27T05:54:49.953Z,96504.28
2022-11-27T05:57:20.234Z,96516.80
2022-11-27T05:59:50.320Z,96518.41
2022-11-27T06:02:23.864Z,96530.14
2022-11-27T06:04:52.816Z,96517.31
2022-11-27T06:07:25.366Z,96512.45
2022-11-27T06:09:55.861Z,96523.57
2022-11-27T06:12:30.079Z,96530.94
2022-11-27T06:15:00.474Z,96539.36
2022-11-27T06:17:30.712Z,96549.19
2022-11-27T06:20:00.856Z,96546.47
2022-11-27T06:22:31.287Z,96545.10
2022-11-27T06:25:01.547Z,96539.65
2022-11-27T06:27:34.601Z,96536.17
2022-11-27T06:30:04.520Z,96536.17
2022-11-27T06:32:34.844Z,96563.06
2022-11-27T06:35:12.123Z,96567.70
2022-11-27T06:38:08.935Z,96568.52
2022-11-27T06:41:06.441Z,96567.15
2022-11-27T06:43:44.551Z,96573.70
2022-11-27T06:46:20.825Z,96567.71
2022-11-27T06:48:52.130Z,96584.31
2022-11-27T06:51:25.029Z,96587.59
2022-11-27T06:54:09.748Z,96583.53
2022-11-27T06:56:41.188Z,96597.67
2022-11-27T06:59:33.057Z,96602.31
2022-11-27T07:02:05.905Z,96605.56
2022-11-27T07:04:44.875Z,96599.59
2022-11-27T07:07:19.736Z,96587.59
2022-11-27T07:09:50.196Z,96596.32
2022-11-27T07:12:20.416Z,96589.23
2022-11-27T07:14:50.593Z,96592.50
2022-11-27T07:17:20.865Z,96602.03
2022-11-27T07:19:55.335Z,96608.59
2022-11-27T07:22:26.157Z,96611.05
2022-11-27T07:24:57.190Z,96612.13
2022-11-27T07:27:27.807Z,96624.39
2022-11-27T07:29:58.030Z,96608.86
2022-11-27T07:32:28.464Z,96597.44
2022-11-27T07:34:58.587Z,96595.23
2022-11-27T07:37:28.952Z,96599.31
2022-11-27T07:40:02.882Z,96611.31
2022-11-27T07:42:39.547Z,96626.55
2022-11-27T07:45:03.678Z,96639.36
2022-11-27T07:47:33.845Z,96639.91
2022-11-27T07:50:03.924Z,96631.44
2022-11-27T07:52:39.553Z,96635.25
2022-11-27T07:55:05.875Z,96641.25
2022-11-27T07:57:36.004Z,96637.16
2022-11-27T08:00:06.985Z,96632.78
2022-11-27T08:02:36.946Z,96637.42
2022-11-27T08:05:12.376Z,96646.95
2022-11-27T08:07:39.499Z,96660.03
2022-11-27T08:10:10.378Z,96670.12
2022-11-27T08:12:40.488Z,96665.77
2022-11-27T08:15:11.706Z,96670.92
2022-11-27T08:17:43.710Z,96679.91
2022-11-27T08:20:14.174Z,96678.55
2022-11-27T08:22:44.323Z,96685.36
2022-11-27T08:25:14.757Z,96678.29
2022-11-27T08:27:46.170Z,96692.17
2022-11-27T08:30:16.712Z,96697.62
2022-11-27T08:32:47.118Z,96698.17
2022-11-27T08:35:17.244Z,96708.00
2022-11-27T08:37:50.332Z,96712.89
2022-11-27T08:40:20.639Z,96701.70
2022-11-27T08:42:50.835Z,96713.16
2022-11-27T08:45:21.143Z,96720.52
2022-11-27T08:47:51.664Z,96725.16
2022-11-27T08:50:22.028Z,96737.16
2022-11-27T08:52:52.432Z,96745.33
2022-11-27T08:55:22.964Z,96747.51
2022-11-27T08:57:54.284Z,96751.85
2022-11-27T09:00:28.170Z,96738.23
2022-11-27T09:02:58.505Z,96748.06
2022-11-27T09:05:29.208Z,96754.87
2022-11-27T09:08:00.673Z,96761.94
2022-11-27T09:10:30.653Z,96778.02
2022-11-27T09:13:01.604Z,96781.27
2022-11-27T09:15:31.754Z,96787.27
2022-11-27T09:18:02.189Z,96787.56
2022-11-27T09:20:32.336Z,96801.44
2022-11-27T09:23:03.514Z,96794.63
2022-11-27T09:25:33.803Z,96808.25
2022-11-27T09:28:04.143Z,96809.88
2022-11-27T09:30:34.373Z,96807.44
2022-11-27T09:33:04.826Z,96809.33
2022-11-27T09:35:35.321Z,96808.25
2022-11-27T09:38:05.460Z,96819.96
2022-11-27T09:40:36.083Z,96830.05
2022-11-27T09:43:11.137Z,96834.40
2022-11-27T09:45:49.601Z,96849.38
2022-11-27T09:48:21.267Z,96860.57
2022-11-27T09:50:52.478Z,96857.55
2022-11-27T09:53:29.082Z,96863.81
2022-11-27T09:55:59.557Z,96852.92
2022-11-27T09:58:42.841Z,96834.95
2022-11-27T10:01:14.813Z,96838.48
2022-11-27T10:03:45.259Z,96850.48
2022-11-27T10:06:35.762Z,96852.91
2022-11-27T10:09:20.333Z,96853.76
2022-11-27T10:12:20.094Z,96852.11
2022-11-27T10:15:10.202Z,96863.00
2022-11-27T10:17:45.899Z,96867.09
2022-11-27T10:20:24.736Z,96855.38
2022-11-27T10:23:04.058Z,96854.02
2022-11-27T10:25:45.237Z,96857.55
2022-11-27T10:28:29.990Z,96874.73
2022-11-27T10:31:05.290Z,96858.66
2022-11-27T10:33:58.145Z,96870.65
2022-11-27T10:36:33.176Z,96870.65
2022-11-27T10:39:03.160Z,96890.79
2022-11-27T10:41:49.299Z,96895.97
2022-11-27T10:44:23.968Z,96913.68
2022-11-27T10:46:54.434Z,96922.12
2022-11-27T10:49:25.588Z,96921.86
2022-11-27T10:51:56.609Z,96928.38
2022-11-27T10:54:33.281Z,96925.14
2022-11-27T10:57:38.889Z,96939.58
2022-11-27T11:00:11.771Z,96952.39
2022-11-27T11:02:42.031Z,96955.38
2022-11-27T11:08:07.506Z,96971.45
2022-11-27T11:10:39.286Z,96969.02
2022-11-27T11:13:23.431Z,96961.65
2022-11-27T11:16:02.100Z,96969.02
2022-11-27T11:18:37.567Z,96964.12
2022-11-27T11:21:09.684Z,96974.47
2022-11-27T11:23:41.600Z,96976.38
2022-11-27T11:26:19.875Z,96996.81
2022-11-27T11:28:52.520Z,96991.36
2022-11-27T11:31:36.902Z,96973.66
2022-11-27T11:34:09.569Z,96977.19
2022-11-27T11:36:39.875Z,96966.30
2022-11-27T11:39:11.745Z,96964.12
2022-11-27T11:41:41.674Z,96950.20
2022-11-27T11:44:20.229Z,96948.84
2022-11-27T11:47:00.010Z,96958.66
2022-11-27T11:49:30.564Z,96976.89
2022-11-27T11:52:12.822Z,96990.00
2022-11-27T11:55:11.927Z,97002.52
2022-11-27T11:58:04.492Z,97006.59
2022-11-27T12:01:04.741Z,97011.79
2022-11-27T12:03:29.654Z,97021.58
2022-11-27T12:06:21.804Z,97024.30
2022-11-27T12:09:12.816Z,97033.03
2022-11-27T12:11:57.741Z,97031.41
2022-11-27T12:14:49.015Z,97030.04
2022-11-27T12:17:47.008Z,97031.39
2022-11-27T12:20:22.692Z,97052.08
2022-11-27T12:23:04.855Z,97061.61
2022-11-27T12:25:43.319Z,97070.60
2022-11-27T12:28:35.442Z,97069.23
2022-11-27T12:31:17.459Z,97085.03
2022-11-27T12:34:06.640Z,97080.70
2022-11-27T12:36:39.246Z,97075.52
2022-11-27T12:39:29.965Z,97077.98
2022-11-27T12:42:22.403Z,97092.42
2022-11-27T12:45:03.239Z,97103.33
2022-11-27T12:47:40.411Z,97112.06
2022-11-27T12:50:26.061Z,97117.23
2022-11-27T12:53:09.943Z,97112.63
2022-11-27T12:55:40.197Z,97122.16
2022-11-27T12:58:14.803Z,97127.87
2022-11-27T13:00:44.786Z,97136.87
2022-11-27T13:03:17.721Z,97144.48
2022-11-27T13:05:50.456Z,97141.50
2022-11-27T13:08:42.296Z,97138.78
2022-11-27T13:11:14.580Z,97142.31
2022-11-27T13:13:52.108Z,97157.85
2022-11-27T13:16:33.063Z,97160.31
2022-11-27T13:19:14.792Z,97165.21
2022-11-27T13:21:44.822Z,97182.63
2022-11-27T13:24:15.389Z,97182.63
2022-11-27T13:27:04.555Z,97182.91
2022-11-27T13:29:36.493Z,97196.54
2022-11-27T13:32:06.782Z,97202.23
2022-11-27T13:34:38.470Z,97215.59
2022-11-27T13:37:09.116Z,97227.31
2022-11-27T13:39:41.057Z,97224.02
2022-11-27T13:42:22.975Z,97233.29
2022-11-27T13:45:03.981Z,97232.74
2022-11-27T13:47:39.258Z,97240.10
2022-11-27T13:50:13.826Z,97252.09
2022-11-27T13:53:05.114Z,97259.72
2022-11-27T13:55:36.388Z,97262.70
2022-11-27T13:58:06.513Z,97278.50
2022-11-27T14:00:39.066Z,97271.97
2022-11-27T14:03:10.909Z,97272.52
2022-11-27T14:05:45.806Z,97268.67
2022-11-27T14:08:29.328Z,97279.30
2022-11-27T14:11:04.669Z,97283.09
2022-11-27T14:13:48.373Z,97281.73
2022-11-27T14:16:30.257Z,97277.38
2022-11-27T14:19:05.009Z,97281.71
2022-11-27T14:21:45.179Z,97290.44
2022-11-27T14:24:27.226Z,97294.52
2022-11-27T14:26:58.035Z,97294.25
2022-11-27T14:29:29.610Z,97286.60
2022-11-27T14:32:03.384Z,97299.67
2022-11-27T14:34:51.874Z,97300.23
2022-11-27T14:37:29.137Z,97306.73
2022-11-27T14:39:59.164Z,97313.83
2022-11-27T14:42:31.244Z,97318.45
2022-11-27T14:45:09.576Z,97319.25
2022-11-27T14:47:41.197Z,97326.27
2022-11-27T14:50:13.203Z,97337.50
2022-11-27T14:52:44.753Z,97339.08
2022-11-27T14:55:21.156Z,97342.10
2022-11-27T14:57:51.656Z,97345.12
2022-11-27T15:00:25.580Z,97350.03
2022-11-27T15:02:55.550Z,97360.92
2022-11-27T15:05:27.560Z,97376.72
2022-11-27T15:07:59.672Z,97378.63
2022-11-27T15:10:38.022Z,97374.28
2022-11-27T15:13:08.807Z,97379.72
2022-11-27T15:15:44.123Z,97381.60
2022-11-27T15:18:18.513Z,97385.38
2022-11-27T15:20:48.639Z,97397.38
2022-11-27T15:23:29.259Z,97402.25
2022-11-27T15:26:16.780Z,97404.40
2022-11-27T15:28:45.696Z,97417.99
2022-11-27T15:31:27.288Z,97414.45
2022-11-27T15:34:21.603Z,97415.55
2022-11-27T15:36:53.407Z,97421.48
2022-11-27T15:39:38.971Z,97426.66
2022-11-27T15:42:11.461Z,97426.38
2022-11-27T15:44:41.890Z,97417.09
2022-11-27T15:47:26.958Z,97423.63
2022-11-27T15:49:57.384Z,97421.15
2022-11-27T15:52:28.324Z,97423.30
2022-11-27T15:54:58.720Z,97426.87
2022-11-27T15:57:34.209Z,97423.55
2022-11-27T16:00:04.883Z,97428.50
2022-11-27T16:02:34.906Z,97436.12
2022-11-27T16:06:33.947Z,97437.66
2022-11-27T16:09:04.065Z,97448.25
2022-11-27T16:11:35.002Z,97450.10
2022-11-27T16:14:05.667Z,97447.08
2022-11-27T16:16:36.573Z,97451.41
2022-11-27T16:19:07.313Z,97436.91
2022-11-27T16:21:37.613Z,97444.52
2022-11-27T16:24:08.969Z,97447.47
2022-11-27T16:26:38.989Z,97450.74
2022-11-27T16:29:09.567Z,97449.34
2022-11-27T16:31:39.803Z,97451.77
2022-11-27T16:34:09.924Z,97453.38
2022-11-27T16:36:40.789Z,97455.31
2022-11-27T16:39:10.576Z,97455.31
2022-11-27T16:41:40.867Z,97454.28
2022-11-27T16:44:15.148Z,97454.61
2022-11-27T16:46:45.299Z,97452.52
2022-11-27T16:49:15.271Z,97458.30
2022-11-27T16:51:45.349Z,97466.83
2022-11-27T16:54:15.296Z,97469.65
2022-11-27T16:56:45.249Z,97466.13
2022-11-27T16:59:16.228Z,97469.73
2022-11-27T17:01:46.323Z,97467.33
2022-11-27T17:04:19.303Z,97469.27
2022-11-27T17:06:49.879Z,97474.49
2022-11-27T17:09:19.818Z,97484.63
2022-11-27T17:11:49.695Z,97489.28
2022-11-27T17:14:21.307Z,97488.52
2022-11-27T17:16:51.297Z,97503.23
2022-11-27T17:19:22.950Z,97495.36
2022-11-27T17:21:53.084Z,97496.17
2022-11-27T17:24:23.008Z,97510.63
2022-11-27T17:26:54.079Z,97518.55
2022-11-27T17:29:24.335Z,97515.28
2022-11-27T17:31:55.423Z,97507.92
2022-11-27T17:34:26.466Z,97504.67
2022-11-27T17:36:58.507Z,97509.88
2022-11-27T17:39:28.655Z,97497.05
2022-11-27T17:41:58.774Z,97496.52
2022-11-27T17:44:28.859Z,97502.78
2022-11-27T17:46:58.523Z,97501.42
2022-11-27T17:49:28.712Z,97498.70
2022-11-27T17:52:04.723Z,97493.25
2022-11-27T17:54:31.039Z,97499.00
2022-11-27T17:57:00.999Z,97510.72
2022-11-27T17:59:31.056Z,97515.36
2022-11-27T18:02:01.146Z,97512.35
2022-11-27T18:04:31.859Z,97504.17
2022-11-27T18:07:01.876Z,97506.09
2022-11-27T18:09:31.887Z,97498.72
2022-11-27T18:12:01.957Z,97497.66
2022-11-27T18:14:32.006Z,97495.48
2022-11-27T18:17:03.375Z,97493.27
2022-11-27T18:19:33.675Z,97490.55
2022-11-27T18:22:03.632Z,97489.75
2022-11-27T18:24:33.547Z,97482.66
2022-11-27T18:27:08.617Z,97475.84
2022-11-27T18:29:35.118Z,97483.22
2022-11-27T18:32:05.269Z,97476.39
2022-11-27T18:34:35.361Z,97479.37
2022-11-27T18:37:05.788Z,97473.37
2022-11-27T18:39:36.070Z,97458.92
2022-11-27T18:42:06.135Z,97456.72
2022-11-27T18:44:39.580Z,97457.52
2022-11-27T18:47:09.515Z,97451.22
2022-11-27T18:49:43.127Z,97459.64
2022-11-27T18:52:13.853Z,97455.28
2022-11-27T18:54:45.070Z,97455.02
2022-11-27T18:57:15.344Z,97447.87
2022-11-27T18:59:51.174Z,97461.48
2022-11-27T19:02:21.372Z,97451.10
2022-11-27T19:04:51.376Z,97455.16
2022-11-27T19:07:21.590Z,97446.45
2022-11-27T19:09:51.987Z,97447.23
2022-11-27T19:12:21.961Z,97448.28
2022-11-27T19:14:52.021Z,97449.64
2022-11-27T19:17:26.786Z,97446.98
2022-11-27T19:19:56.161Z,97439.93
2022-11-27T19:22:27.118Z,97454.38
2022-11-27T19:24:57.244Z,97447.02
2022-11-27T19:27:27.667Z,97441.04
2022-11-27T19:29:58.107Z,97432.84
2022-11-27T19:32:28.743Z,97429.58
2022-11-27T19:35:01.911Z,97432.57
2022-11-27T19:37:34.883Z,97429.33
2022-11-27T19:40:03.636Z,97425.23
2022-11-27T19:42:34.196Z,97422.77
2022-11-27T19:45:04.396Z,97433.36
2022-11-27T19:47:34.878Z,97434.43
2022-11-27T19:50:04.763Z,97434.45
2022-11-27T19:52:36.526Z,97434.19
2022-11-27T19:55:07.217Z,97440.17
2022-11-27T19:57:37.379Z,97441.86
2022-11-27T20:00:09.053Z,97433.39
2022-11-27T20:02:39.469Z,97428.45
2022-11-27T20:05:10.390Z,97424.39
2022-11-27T20:07:40.583Z,97422.19
2022-11-27T20:10:11.185Z,97419.22
2022-11-27T20:12:42.139Z,97427.89
2022-11-27T20:15:17.772Z,97430.91
2022-11-27T20:17:47.739Z,97429.87
2022-11-27T20:20:17.761Z,97429.33
2022-11-27T20:22:47.823Z,97419.47
2022-11-27T20:25:19.980Z,97415.63
2022-11-27T20:27:49.923Z,97419.15
2022-11-27T20:30:19.993Z,97417.22
2022-11-27T20:32:50.320Z,97415.28
2022-11-27T20:35:20.578Z,97416.38
2022-11-27T20:37:51.007Z,97421.02
2022-11-27T20:40:22.480Z,97427.80
2022-11-27T20:42:52.840Z,97419.89
2022-11-27T20:45:22.994Z,97415.30
2022-11-27T20:47:54.384Z,97407.42
2022-11-27T20:50:25.316Z,97410.17
2022-11-27T20:52:55.650Z,97408.00
2022-11-27T20:55:26.987Z,97412.88
2022-11-27T20:57:57.330Z,97419.15
2022-11-27T21:00:27.880Z,97422.39
2022-11-27T21:02:59.140Z,97418.83
2022-11-27T21:05:30.001Z,97410.63
2022-11-27T21:08:01.857Z,97413.67
2022-11-27T21:10:32.051Z,97414.54
2022-11-27T21:13:03.887Z,97421.90
2022-11-27T21:15:34.214Z,97419.99
2022-11-27T21:18:04.296Z,97441.27
2022-11-27T21:20:34.577Z,97442.39
2022-11-27T21:23:04.584Z,97451.59
2022-11-27T21:25:34.605Z,97454.11
2022-11-27T21:28:05.047Z,97455.16
2022-11-27T21:30:35.033Z,97458.46
2022-11-27T21:33:06.459Z,97461.46
2022-11-27T21:35:40.167Z,97466.39
2022-11-27T21:38:08.876Z,97472.09
2022-11-27T21:40:39.201Z,97478.36
2022-11-27T21:43:09.325Z,97484.92
2022-11-27T21:45:39.745Z,97490.41
2022-11-27T21:48:14.059Z,97483.88
2022-11-27T21:50:41.921Z,97489.33
2022-11-27T21:53:12.032Z,97492.63
2022-11-27T21:55:42.948Z,97495.06
2022-11-27T21:58:12.893Z,97493.45
2022-11-27T22:00:43.160Z,97496.49
2022-11-27T22:03:15.991Z,97493.20
2022-11-27T22:05:45.966Z,97494.81
2022-11-27T22:11:03.481Z,97507.33
2022-11-27T22:13:33.451Z,97516.32
2022-11-27T22:16:03.920Z,97520.69
2022-11-27T22:18:33.995Z,97537.64
2022-11-27T22:21:08.069Z,97542.55
2022-11-27T22:23:39.033Z,97541.73
2022-11-27T22:26:11.836Z,97544.13
2022-11-27T22:28:42.502Z,97545.22
2022-11-27T22:31:20.966Z,97545.98
2022-11-27T22:33:51.319Z,97551.67
2022-11-27T22:36:28.957Z,97554.61
2022-11-27T22:38:59.059Z,97553.77
2022-11-27T22:41:29.986Z,97546.41
2022-11-27T22:44:01.243Z,97544.77
2022-11-27T22:46:36.373Z,97553.52
2022-11-27T22:49:08.104Z,97545.89
2022-11-27T22:51:38.771Z,97548.86
2022-11-27T22:54:10.648Z,97548.59
2022-11-27T22:56:40.542Z,97540.08
2022-11-27T22:59:31.785Z,97551.53
2022-11-27T23:01:42.668Z,97552.07
2022-11-27T23:04:13.446Z,97550.67
2022-11-27T23:06:44.854Z,97549.25
2022-11-27T23:09:15.323Z,97555.80
2022-11-27T23:11:45.386Z,97558.19
2022-11-27T23:14:15.573Z,97558.19
2022-11-27T23:16:45.934Z,97553.28
2022-11-27T23:19:16.027Z,97550.86
2022-11-27T23:21:46.289Z,97556.28
2022-11-27T23:24:16.865Z,97562.27
2022-11-27T23:26:46.802Z,97562.03
2022-11-27T23:29:17.228Z,97561.73
2022-11-27T23:31:57.299Z,97558.36
2022-11-27T23:34:19.605Z,97567.32
2022-11-27T23:36:49.817Z,97570.01
2022-11-27T23:39:20.020Z,97566.20
2022-11-27T23:41:50.303Z,97568.07
2022-11-27T23:46:56.831Z,97571.58
2022-11-27T23:49:27.145Z,97571.51
2022-11-27T23:51:57.449Z,97584.31
2022-11-27T23:54:28.825Z,97592.17
2022-11-27T23:56:58.897Z,97590.81
2022-11-27T23:59:29.513Z,97592.72
